Data for 07/03/2017

Time Sea-Level Adjusted Pressure Absolute Pressure Temperature Relative Humidity Dew Point   
(mb) (inHg) (mb) (inHg) (C) (F) (%) (C) (F)
00:05 1020 30.12 849 25.07 17 62.5 46 5.4 41.8
00:10 1020 30.12 849 25.07 17 62.5 46 5.4 41.7
00:15 1020 30.12 849 25.07 16.9 62.5 46 5.3 41.5
00:20 1020 30.12 849 25.07 16.8 62.2 46 5.3 41.6
00:25 1020 30.12 849 25.07 16.7 62 47 5.5 41.8
00:30 1020 30.12 849 25.07 16.8 62.2 47 5.4 41.7
00:35 1020 30.12 849 25.07 16.9 62.4 46 5.2 41.3
00:40 1020 30.12 849 25.07 16.7 62.1 48 5.6 42.1
00:45 1020 30.12 849 25.07 16.5 61.7 47 5.2 41.4
00:50 1020 30.12 849 25.07 16.6 61.8 47 5.3 41.5
00:55 1020 30.12 849 25.07 16.5 61.7 47 5.4 41.7
01:00 1020 30.12 849 25.07 16.4 61.5 49 5.6 42.1
01:05 1020 30.12 849 25.07 16.1 61.1 51 6 42.9
01:10 1020 30.12 849 25.07 15.9 60.6 52 6.2 43.2
01:15 1020 30.12 849 25.07 15.3 59.6 53 5.9 42.7
01:20 1020 30.12 849 25.07 15.5 59.9 51 5.5 41.9
01:25 1020 30.12 849 25.07 15.7 60.3 52 5.9 42.7
01:30 1020 30.12 849 25.07 15.5 59.9 53 6 42.8
01:35 1020 30.12 849 25.07 15.4 59.7 51 5.5 41.9
01:40 1020 30.12 849 25.07 15.7 60.2 50 5.4 41.8
01:45 1020 30.12 849 25.07 15.6 60.1 51 5.5 41.9
01:50 1020 30.12 849 25.07 15.6 60.1 50 5.4 41.7
01:55 1020 30.12 849 25.07 15.4 59.8 51 5.4 41.7
02:00 1020 30.12 849 25.07 15.4 59.8 50 5.2 41.3
02:05 1020 30.12 849 25.07 15.5 59.8 49 5 40.9
02:10 1020 30.12 849 25.07 15.5 59.9 49 4.9 40.8
02:15 1020 30.12 849 25.07 15.7 60.2 48 4.7 40.5
02:20 1020 30.12 849 25.07 15.7 60.2 49 5.1 41.3
02:25 1020 30.12 849 25.07 15.4 59.6 51 5.5 41.8
02:30 1020 30.12 849 25.07 14.9 58.8 53 5.5 41.9
02:35 1020 30.12 849 25.07 14.5 58 54 5.3 41.5
02:40 1020 30.12 849 25.07 14.4 57.9 53 5 41
02:45 1020 30.12 849 25.07 14.6 58.2 52 4.9 40.8
02:50 1020 30.12 849 25.07 14.7 58.5 53 5.3 41.6
02:55 1020 30.12 849 25.07 14.6 58.3 54 5.6 42.1
03:00 1020 30.12 849 25.07 14.4 58 54 5.3 41.5
03:05 1020 30.12 849 25.07 14.8 58.6 51 4.8 40.6
03:10 1020 30.12 849 25.07 15.2 59.3 50 5 41
03:15 1020 30.12 849 25.07 15.1 59.1 51 5.2 41.3
03:20 1020 30.12 849 25.07 14.7 58.4 53 5.2 41.4
03:25 1020 30.12 849 25.07 14.5 58.1 54 5.5 41.9
03:30 1020 30.12 849 25.07 14.4 58 55 5.5 41.8
03:35 1020 30.12 849 25.07 14.8 58.6 53 5.4 41.8
03:40 1020 30.12 849 25.07 14.7 58.5 54 5.6 42.1
03:45 1020 30.12 849 25.07 14.4 58 56 5.9 42.6
03:50 1020 30.12 849 25.07 13.8 56.9 59 6 42.8
03:55 1020 30.12 849 25.07 13.6 56.4 57 5.3 41.5
04:00 1020 30.12 849 25.07 14.2 57.6 55 5.3 41.5
04:05 1020 30.12 849 25.07 14.4 57.9 55 5.4 41.7
04:10 1020 30.12 849 25.07 14.3 57.8 54 5.3 41.6
04:15 1020 30.12 849 25.07 14.2 57.6 55 5.5 41.9
04:20 1020 30.12 849 25.07 14.1 57.3 56 5.4 41.8
04:25 1020 30.12 849 25.07 13.8 56.9 56 5.2 41.3
04:30 1020 30.12 849 25.07 13.9 57 54 4.9 40.9
04:35 1020 30.12 849 25.07 14.2 57.6 53 4.7 40.5
04:40 1020 30.12 849 25.07 14.6 58.2 52 5 41.1
04:45 1020 30.12 849 25.07 14.5 58.1 53 5.1 41.3
04:50 1020 30.12 849 25.07 14.1 57.3 56 5.4 41.8
04:55 1020 30.12 849 25.07 13.6 56.5 57 5.4 41.8
05:00 1020 30.12 849 25.07 13.6 56.4 56 4.9 40.9
05:05 1020 30.12 849 25.07 14.8 58.6 50 4.6 40.2
05:10 1020 30.12 849 25.07 15.1 59.2 51 5.1 41.1
05:15 1020 30.12 849 25.07 15.2 59.4 48 4.5 40.1
05:20 1020 30.12 849 25.07 15.5 59.9 49 4.8 40.7
05:25 1020 30.12 849 25.07 15.4 59.7 50 5.2 41.3
05:30 1020 30.12 849 25.07 15.1 59.2 51 5 41.1
05:35 1020 30.12 849 25.07 15 59.1 52 5.3 41.5
05:40 1020 30.12 849 25.07 15 59 52 5.4 41.6
05:45 1020 30.12 849 25.07 15.1 59.2 51 5.1 41.2
05:50 1020 30.12 849 25.07 15.2 59.4 51 5.3 41.6
05:55 1020 30.12 849 25.07 15.3 59.5 51 5.4 41.7
06:00 1020 30.12 849 25.07 15.5 59.9 52 5.6 42.1
06:05 1020 30.12 849 25.07 15.2 59.4 54 6 42.7
06:10 1020 30.12 849 25.07 15 59.1 54 5.9 42.7
06:15 1020 30.12 849 25.07 15 59 54 5.8 42.4
06:20 1020 30.12 849 25.07 15.3 59.5 53 5.9 42.6
06:25 1020 30.12 849 25.07 15.7 60.3 52 5.9 42.6
06:30 1020 30.12 849 25.07 16.1 61 51 6.2 43.1
06:35 1020 30.12 849 25.07 16.4 61.6 51 6.3 43.4
06:40 1020 30.12 849 25.07 16.7 62 50 6.4 43.5
06:45 1020 30.12 849 25.07 17.1 62.8 50 6.7 44
06:50 1020 30.12 849 25.07 17.5 63.4 48 6.5 43.7
06:55 1020 30.12 849 25.07 17.6 63.6 47 6.1 43
07:00 1020 30.12 849 25.07 17.8 64.1 47 6.5 43.8
07:05 1020 30.12 849 25.07 18.2 64.8 48 7.1 44.8
07:10 1020 30.12 849 25.07 18.4 65.1 48 7.4 45.2
07:15 1020 30.12 849 25.07 18.5 65.2 48 7.3 45.2
07:20 1020 30.12 849 25.07 18.7 65.6 49 7.8 46
07:25 1020 30.12 849 25.07 19.3 66.7 46 7.4 45.3
07:30 1020 30.12 849 25.07 19.6 67.2 49 8.6 47.5
07:35 1020 30.12 849 25.07 19.8 67.7 44 7.3 45.2
07:40 1020 30.12 849 25.07 19.6 67.3 45 7.5 45.5
07:45 1020 30.12 849 25.07 20 68 45 7.9 46.2
07:50 1020 30.12 849 25.07 20.7 69.3 39 6.4 43.6
07:55 1020 30.12 849 25.07 20.9 69.7 39 6.7 44.1
08:00 1020 30.12 849 25.07 20.8 69.5 36 5.3 41.5
08:05 1020 30.12 849 25.07 21.1 69.9 35 5.2 41.4
08:10 1020 30.12 850 25.1 21.4 70.6 34 5.1 41.2
08:15 1020 30.12 849 25.07 21.9 71.5 33 4.9 40.9
08:20 1020 30.12 849 25.07 21.8 71.3 33 5 40.9
08:25 1020 30.12 849 25.07 22.6 72.7 31 4.7 40.4
08:30 1020 30.12 849 25.07 23 73.4 31 5.1 41.2
08:35 1020 30.12 849 25.07 22.9 73.2 30 4.5 40
08:40 1020 30.12 849 25.07 23.3 74 30 5.1 41.2
08:45 1020 30.12 849 25.07 22.8 73 30 4.7 40.5
08:50 1020 30.12 849 25.07 23.4 74 31 5.3 41.5
08:55 1020 30.12 849 25.07 23.7 74.7 31 5.8 42.4
09:00 1020 30.12 849 25.07 24.2 75.5 30 5.7 42.3
09:05 1020 30.12 849 25.07 24.5 76.1 29 5.7 42.2
09:10 1020 30.12 849 25.07 24.6 76.2 29 5.6 42.2
09:15 1020 30.12 849 25.07 24.7 76.5 29 5.8 42.5
09:20 1020 30.12 849 25.07 25.1 77.1 28 5.7 42.3
09:25 1020 30.12 849 25.07 25.5 77.9 29 6.3 43.4
09:30 1020 30.12 849 25.07 25.3 77.6 29 6.2 43.2
09:35 1020 30.12 849 25.07 25.7 78.2 29 6.5 43.6
09:40 1020 30.12 849 25.07 25.5 77.9 29 6.3 43.3
09:45 1020 30.12 849 25.07 25.7 78.3 26 5 40.9
09:50 1020 30.12 849 25.07 25.4 77.8 28 5.6 42.1
09:55 1020 30.12 849 25.07 26.3 79.3 26 5.6 42
10:00 1020 30.12 849 25.07 26.4 79.6 26 5.7 42.3
10:05 1020 30.12 849 25.07 27.1 80.7 25 5.6 42.1
10:10 1020 30.12 849 25.07 25.9 78.6 29 6.6 44
10:15 1020 30.12 849 25.07 26.4 79.5 29 7 44.6
10:20 1020 30.12 849 25.07 27.4 81.4 26 6.6 43.9
10:25 1020 30.12 849 25.07 27.6 81.7 26 6.6 43.8
10:30 1020 30.12 849 25.07 27.8 82 26 6.5 43.8
10:35 1020 30.12 849 25.07 27.7 81.8 26 6.8 44.2
10:40 1020 30.12 849 25.07 26.5 79.7 25 5.4 41.8
10:45 1020 30.12 849 25.07 26.3 79.4 26 5.6 42.1
10:50 1020 30.12 849 25.07 26.8 80.2 26 6.2 43.1
10:55 1020 30.12 849 25.07 26.2 79.1 26 5.6 42
11:00 1020 30.12 849 25.07 27.2 81 25 5.7 42.3
11:05 1020 30.12 849 25.07 28 82.3 24 5.9 42.6
11:10 1020 30.12 849 25.07 27.4 81.3 25 6.1 42.9
11:15 1020 30.12 849 25.07 26.9 80.3 25 5.3 41.5
11:20 1020 30.12 849 25.07 27.8 82.1 25 6.2 43.1
11:25 1020 30.12 849 25.07 28.2 82.8 23 5.6 42
11:30 1019 30.09 849 25.07 28.5 83.3 23 5.5 41.8
11:35 1019 30.09 849 25.07 28.8 83.8 22 5.6 42.1
11:40 1019 30.09 849 25.07 28.7 83.6 24 6.2 43.1
11:45 1019 30.09 849 25.07 28.5 83.3 22 5.3 41.5
11:50 1019 30.09 849 25.07 29 84.2 23 6 42.8
11:55 1019 30.09 849 25.07 29 84.1 23 5.9 42.7
12:00 1019 30.09 849 25.07 28.7 83.6 23 5.8 42.5
12:05 1019 30.09 849 25.07 29.1 84.4 23 6.1 42.9
12:10 1019 30.09 849 25.07 29.1 84.3 23 5.9 42.7
12:15 1019 30.09 849 25.07 29 84.1 23 5.9 42.7
12:20 1019 30.09 848 25.04 28.2 82.8 22 4.8 40.6
12:25 1019 30.09 848 25.04 28.6 83.5 22 5.2 41.4
12:30 1019 30.09 848 25.04 29.6 85.3 21 5.6 42.1
12:35 1019 30.09 848 25.04 30.3 86.5 20 5.1 41.2
12:40 1019 30.09 848 25.04 30.1 86.1 20 5.1 41.2
12:45 1019 30.09 848 25.04 30.4 86.7 21 5.7 42.3
12:50 1019 30.09 848 25.04 30.7 87.3 19 5.1 41.2
12:55 1019 30.09 848 25.04 30.9 87.7 19 5.1 41.2
13:00 1019 30.09 848 25.04 31 87.8 21 6.1 43.1
13:05 1019 30.09 848 25.04 30.5 86.8 19 4.4 39.8
13:10 1019 30.09 848 25.04 30.2 86.4 19 4.5 40.2
13:15 1019 30.09 848 25.04 31.1 87.9 18 4.7 40.4
13:20 1019 30.09 848 25.04 31.7 89 17 4 39.2
13:25 1019 30.09 848 25.04 30.8 87.4 18 4.2 39.6
13:30 1019 30.09 848 25.04 30.8 87.5 18 4.3 39.7
13:35 1019 30.09 848 25.04 31.1 88 18 4.1 39.5
13:40 1019 30.09 848 25.04 31.1 87.9 19 4.9 40.8
13:45 1019 30.09 848 25.04 30.5 87 18 4 39.2
13:50 1018 30.06 848 25.04 31.2 88.1 19 5.1 41.2
13:55 1019 30.09 848 25.04 31.1 87.9 19 4.8 40.7
14:00 1019 30.09 848 25.04 31.2 88.2 19 5 40.9
14:05 1018 30.06 848 25.04 31.1 88 19 5 41
14:10 1018 30.06 848 25.04 30.1 86.2 19 4.6 40.3
14:15 1018 30.06 848 25.04 30.3 86.6 20 4.9 40.7
14:20 1018 30.06 848 25.04 30.5 86.9 18 3.8 38.9
14:25 1018 30.06 848 25.04 30.8 87.5 18 3.9 39
14:30 1018 30.06 848 25.04 30.8 87.5 18 3.8 38.9
14:35 1018 30.06 848 25.04 29.9 85.8 20 4.6 40.3
14:40 1018 30.06 847 25.01 30.3 86.5 19 4.4 39.9
14:45 1018 30.06 847 25.01 30.7 87.3 19 5 41.1
14:50 1018 30.06 847 25.01 31.2 88.1 18 4.2 39.5
14:55 1018 30.06 847 25.01 31.1 87.9 18 4.5 40.1
15:00 1018 30.06 847 25.01 30.8 87.5 17 3.2 37.8
15:05 1018 30.06 847 25.01 30.9 87.5 18 4.5 40
15:10 1018 30.06 847 25.01 31.6 88.9 18 4.5 40.1
15:15 1018 30.06 847 25.01 31.7 89.1 18 4.9 40.9
15:20 1018 30.06 847 25.01 30.9 87.5 17 3.6 38.4
15:25 1018 30.06 847 25.01 31.9 89.3 17 4 39.2
15:30 1018 30.06 847 25.01 31.9 89.3 16 3.2 37.8
15:35 1018 30.06 847 25.01 31.3 88.3 17 3.4 38.1
15:40 1018 30.06 847 25.01 31.3 88.3 17 3.7 38.6
15:45 1018 30.06 847 25.01 31.7 89 16 3.6 38.4
15:50 1018 30.06 847 25.01 31.3 88.4 18 4.8 40.7
15:55 1018 30.06 847 25.01 30.5 86.9 18 3.7 38.7
16:00 1018 30.06 847 25.01 30.3 86.6 18 3.9 39
16:05 1018 30.06 847 25.01 30.7 87.2 18 4.1 39.3
16:10 1018 30.06 847 25.01 31.2 88.1 16 2.8 37
16:15 1018 30.06 847 25.01 31 87.8 17 3.4 38.1
16:20 1018 30.06 847 25.01 31.1 88 16 2.4 36.3
16:25 1018 30.06 847 25.01 31.5 88.8 15 2.4 36.4
16:30 1018 30.06 847 25.01 31.2 88.2 16 2.4 36.3
16:35 1018 30.06 847 25.01 31 87.8 15 1.5 34.8
16:40 1018 30.06 847 25.01 31.5 88.8 15 2 35.6
16:45 1018 30.06 847 25.01 31.2 88.2 15 1.9 35.4
16:50 1018 30.06 847 25.01 30.4 86.7 16 1.7 35.1
16:55 1018 30.06 847 25.01 30.1 86.1 17 2.5 36.5
17:00 1018 30.06 847 25.01 30.3 86.5 16 2.4 36.4
17:05 1017 30.03 847 25.01 30.9 87.7 17 3.4 38.1
17:10 1017 30.03 847 25.01 31.2 88.2 17 3.5 38.3
17:15 1017 30.03 847 25.01 31.1 88 16 2.3 36.2
17:20 1017 30.03 847 25.01 31.2 88.2 15 2.3 36.2
17:25 1017 30.03 847 25.01 31.1 87.9 15 2 35.7
17:30 1017 30.03 847 25.01 31 87.8 15 1.6 34.9
17:35 1017 30.03 847 25.01 30.9 87.7 15 1.9 35.4
17:40 1017 30.03 847 25.01 31.2 88.1 15 1.9 35.4
17:45 1017 30.03 847 25.01 31.1 88 15 2 35.6
17:50 1017 30.03 847 25.01 31 87.7 15 1.7 35.1
17:55 1017 30.03 847 25.01 30.8 87.5 15 1.7 35
18:00 1017 30.03 847 25.01 31 87.7 15 1.9 35.4
18:05 1017 30.03 847 25.01 30.9 87.6 15 2 35.5
18:10 1017 30.03 847 25.01 30.8 87.4 16 2.5 36.4
18:15 1017 30.03 847 25.01 30.6 87 15 1.6 34.8
18:20 1017 30.03 847 25.01 30.7 87.2 17 3.1 37.7
18:25 1017 30.03 847 25.01 30.7 87.2 17 2.9 37.2
18:30 1017 30.03 847 25.01 30.6 87.1 17 3.1 37.5
18:35 1017 30.03 847 25.01 30 86 19 4.2 39.5
18:40 1017 30.03 847 25.01 29.7 85.4 21 5.3 41.6
18:45 1018 30.06 847 25.01 29.5 85.1 20 4.6 40.3
18:50 1018 30.06 847 25.01 29.4 84.9 21 4.9 40.7
18:55 1018 30.06 847 25.01 29.3 84.7 19 4 39.1
19:00 1018 30.06 847 25.01 29.2 84.5 20 4.2 39.5
19:05 1018 30.06 847 25.01 29.2 84.6 20 4.6 40.2
19:10 1018 30.06 847 25.01 29 84.3 21 5 40.9
19:15 1018 30.06 847 25.01 28.9 83.9 22 5.4 41.8
19:20 1018 30.06 847 25.01 28.7 83.6 21 4.7 40.5
19:25 1018 30.06 847 25.01 28.5 83.4 22 5 41.1
19:30 1018 30.06 847 25.01 28.4 83.1 23 5.3 41.5
19:35 1018 30.06 847 25.01 28.3 82.9 23 5.8 42.4
19:40 1018 30.06 847 25.01 28.1 82.6 25 6.6 43.9
19:45 1018 30.06 847 25.01 27.7 81.9 27 7.1 44.9
19:50 1018 30.06 847 25.01 27.2 80.9 27 6.9 44.4
19:55 1018 30.06 847 25.01 27 80.6 29 7.5 45.5
20:00 1018 30.06 847 25.01 26.7 80.1 31 8.7 47.6
20:05 1018 30.06 847 25.01 26.3 79.4 36 10.5 50.9
20:10 1018 30.06 847 25.01 25.9 78.5 40 11.4 52.6
20:15 1018 30.06 847 25.01 25.4 77.6 37 9.7 49.5
20:20 1018 30.06 847 25.01 25.3 77.5 35 8.8 47.9
20:25 1018 30.06 848 25.04 25.3 77.6 34 8.6 47.5
20:30 1018 30.06 848 25.04 25.6 78.1 33 8.3 47
20:35 1019 30.09 848 25.04 25.7 78.3 32 7.9 46.3
20:40 1019 30.09 848 25.04 25.4 77.8 33 8.2 46.8
20:45 1019 30.09 848 25.04 25.1 77.2 34 8.3 46.9
20:50 1019 30.09 848 25.04 25 76.9 34 8.1 46.5
20:55 1019 30.09 848 25.04 24.8 76.7 33 7.7 45.9
21:00 1019 30.09 848 25.04 24.4 75.9 41 10.7 51.2
21:05 1019 30.09 848 25.04 23.1 73.5 41 9.3 48.7
21:10 1019 30.09 848 25.04 22.9 73.3 37 7.9 46.1
21:15 1019 30.09 848 25.04 23.4 74 38 8.6 47.5
21:20 1019 30.09 848 25.04 23.6 74.5 36 7.9 46.2
21:25 1019 30.09 848 25.04 23.6 74.6 34 7.2 45
21:30 1019 30.09 848 25.04 23.6 74.5 34 7 44.6
21:35 1019 30.09 849 25.07 23.6 74.4 33 6.7 44
21:40 1019 30.09 849 25.07 23.6 74.4 32 5.9 42.7
21:45 1020 30.12 849 25.07 23.6 74.5 33 6.5 43.8
21:50 1020 30.12 849 25.07 23.2 73.7 33 6.3 43.4
21:55 1020 30.12 849 25.07 23.1 73.7 32 5.8 42.5
22:00 1020 30.12 849 25.07 23.1 73.6 35 7 44.5
22:05 1020 30.12 849 25.07 22.6 72.6 36 6.7 44.1
22:10 1020 30.12 849 25.07 22.2 71.9 37 7.2 44.9
22:15 1020 30.12 849 25.07 22 71.6 39 7.5 45.5
22:20 1020 30.12 849 25.07 21.7 71.1 39 7.2 45
22:25 1020 30.12 849 25.07 21.7 71 39 7.3 45.2
22:30 1020 30.12 849 25.07 21.5 70.7 40 7.6 45.6
22:35 1020 30.12 849 25.07 21.4 70.5 39 7.1 44.7
22:40 1020 30.12 849 25.07 21.4 70.5 39 7.2 45
22:45 1020 30.12 849 25.07 21.3 70.4 38 6.8 44.2
22:50 1020 30.12 849 25.07 21.2 70.2 38 6.6 43.9
22:55 1020 30.12 850 25.1 21.3 70.3 39 6.8 44.3
23:00 1020 30.12 850 25.1 21.2 70.2 39 7 44.5
23:05 1020 30.12 850 25.1 21.1 70 38 6.3 43.4
23:10 1020 30.12 850 25.1 21 69.9 42 7.9 46.2
23:15 1020 30.12 850 25.1 20.5 69 45 8.4 47
23:20 1020 30.12 850 25.1 19.8 67.7 45 7.6 45.7
23:25 1021 30.15 850 25.1 19.7 67.4 40 6 42.8
23:30 1021 30.15 850 25.1 20.1 68.2 43 7.4 45.4
23:35 1021 30.15 850 25.1 19.6 67.3 41 6.2 43.2
23:40 1021 30.15 850 25.1 19.6 67.4 41 6.2 43.1
23:45 1021 30.15 850 25.1 20 68 38 5.5 41.8
23:50 1021 30.15 850 25.1 20.2 68.3 39 6 42.7
23:55 1021 30.15 850 25.1 20.1 68.1 39 5.8 42.5
24:00 1021 30.15 850 25.1 20.2 68.3 39 5.9 42.7